Whyalla, Australia
Current Conditions -  °F | °C
As of 11:00 AM on Saturday 22 Nov 2014 (Local Time) from YWHA Reporting Station
Clear Clear  
Wind Chill: 81°   Ceiling: Unl
Heat Index: 81°   Visibility: 6mi
Dew Point: 52°   Wind: 20mph
Humidity: 37%   Direction: 190°S
Pressure: 29.71"   Gusts: NA
Location:  33.03°S, 137.59°E
Report Text: YWHA 220100Z AUTO 19017KT 9999 // NCD 27/11 Q1006
Loading
Personal Weather Stations






























Interactive Weather Map New forecast layout! Learn more

10-Day Weather Forecast

Advertisements
Track Severe Weather on mobile